Time;durP1;ratioP1;P1;durP2;ratioP2;P2;SDS_P1;SDS_P2;PMS_P1;PMS_P2;Temp;Humidity;BMP_temperature;BMP_pressure;BME280_temperature;BME280_humidity;BME280_pressure;Samples;Min_cycle;Max_cycle;Signal;HPM_P1;HPM_P2
2022/08/16 00:00:28;;;;;;;19.33;15.77;;;20.60;99.90;;;;;;5073353;28;20106;-74
2022/08/16 00:02:55;;;;;;;18.55;15.27;;;20.60;99.90;;;;;;5072385;28;20045;-74
2022/08/16 00:05:23;;;;;;;19.42;15.75;;;20.60;99.90;;;;;;5071887;28;20095;-74
2022/08/16 00:07:50;;;;;;;17.60;15.30;;;20.70;99.90;;;;;;5072089;28;20041;-75
2022/08/16 00:10:17;;;;;;;17.70;15.80;;;20.60;99.90;;;;;;5072158;28;20041;-74
2022/08/16 00:12:43;;;;;;;18.52;16.55;;;20.60;99.90;;;;;;5073062;28;20102;-74
2022/08/16 00:15:21;;;;;;;16.02;14.27;;;20.60;99.90;;;;;;5073150;28;20055;-74
2022/08/16 00:17:47;;;;;;;17.02;15.23;;;20.60;99.90;;;;;;5072528;28;20083;-74
2022/08/16 00:20:13;;;;;;;19.15;15.43;;;20.60;99.90;;;;;;5055826;28;20076;-74
2022/08/16 00:22:41;;;;;;;19.27;16.70;;;20.60;99.90;;;;;;5073152;28;20067;-74
2022/08/16 00:25:14;;;;;;;20.73;16.63;;;20.60;99.90;;;;;;5071861;28;20048;-74
2022/08/16 00:27:41;;;;;;;18.88;15.75;;;20.60;99.90;;;;;;5072684;28;20048;-74
2022/08/16 00:30:09;;;;;;;21.05;16.02;;;20.60;99.90;;;;;;5073206;28;20048;-74
2022/08/16 00:32:37;;;;;;;18.85;15.88;;;20.60;99.90;;;;;;5071991;28;20044;-74
2022/08/16 00:35:03;;;;;;;18.45;16.45;;;20.60;99.90;;;;;;5073063;28;20040;-73
2022/08/16 00:37:29;;;;;;;18.75;16.75;;;20.60;99.90;;;;;;5072815;28;20158;-74
2022/08/16 00:39:54;;;;;;;20.55;17.00;;;20.60;99.90;;;;;;5073000;28;20044;-74
2022/08/16 00:42:20;;;;;;;20.88;16.85;;;20.60;99.90;;;;;;5072004;28;20055;-74
2022/08/16 00:44:55;;;;;;;19.98;16.90;;;20.60;99.90;;;;;;5072941;28;20056;-75
2022/08/16 00:47:22;;;;;;;20.92;17.50;;;20.60;99.90;;;;;;5073581;28;20355;-74
2022/08/16 00:49:48;;;;;;;19.00;16.92;;;20.60;99.90;;;;;;5076586;28;20481;-75
2022/08/16 00:52:14;;;;;;;20.98;16.88;;;20.60;99.90;;;;;;5059818;28;20061;-75
2022/08/16 00:54:40;;;;;;;19.73;17.55;;;20.50;99.90;;;;;;5075367;28;20127;-74
2022/08/16 00:57:06;;;;;;;19.77;16.05;;;20.60;99.90;;;;;;5076428;28;20113;-74
2022/08/16 00:59:34;;;;;;;18.77;16.42;;;20.50;99.90;;;;;;5059164;28;20094;-74
2022/08/16 01:02:02;;;;;;;21.35;17.95;;;20.50;99.90;;;;;;5076669;28;20041;-74
2022/08/16 01:04:28;;;;;;;18.88;16.85;;;20.50;99.90;;;;;;5076108;28;20136;-74
2022/08/16 01:06:54;;;;;;;19.02;16.77;;;20.50;99.90;;;;;;5058627;28;20131;-75
2022/08/16 01:09:21;;;;;;;20.63;17.02;;;20.50;99.90;;;;;;5075562;28;20118;-74
2022/08/16 01:11:47;;;;;;;21.25;17.10;;;20.50;99.90;;;;;;5058649;28;20079;-75
2022/08/16 01:14:23;;;;;;;18.77;16.80;;;20.50;99.90;;;;;;5058511;28;20048;-74
2022/08/16 01:16:51;;;;;;;20.17;17.17;;;20.50;99.90;;;;;;5076358;28;20048;-75
2022/08/16 01:19:27;;;;;;;20.45;17.75;;;20.50;99.90;;;;;;5074768;28;20123;-74
2022/08/16 01:22:00;;;;;;;22.15;18.13;;;20.50;99.90;;;;;;5075025;28;20439;-74
2022/08/16 01:24:50;;;;;;;22.10;17.00;;;20.50;99.90;;;;;;5075769;28;20098;-74
2022/08/16 01:27:29;;;;;;;21.02;17.70;;;20.50;99.90;;;;;;5074749;28;20084;-75
2022/08/16 01:30:06;;;;;;;20.38;17.15;;;20.40;99.90;;;;;;5075954;28;20084;-74
2022/08/16 01:32:52;;;;;;;19.40;16.85;;;20.40;99.90;;;;;;5076155;28;20052;-74
2022/08/16 01:35:22;;;;;;;25.33;18.58;;;20.40;99.90;;;;;;5074879;28;20123;-74
2022/08/16 01:37:52;;;;;;;24.25;18.88;;;20.40;99.90;;;;;;5075650;28;20053;-75
2022/08/16 01:40:28;;;;;;;23.35;18.73;;;20.40;99.90;;;;;;5075473;28;20080;-75
2022/08/16 01:42:55;;;;;;;22.30;18.80;;;20.40;99.90;;;;;;5074399;28;20064;-75
2022/08/16 01:45:21;;;;;;;22.48;18.73;;;20.30;99.90;;;;;;5076053;28;20056;-75
2022/08/16 01:47:50;;;;;;;21.38;18.70;;;20.30;99.90;;;;;;5075132;28;20507;-75
2022/08/16 01:50:17;;;;;;;21.60;19.30;;;20.30;99.90;;;;;;5074784;28;20040;-74
2022/08/16 01:52:43;;;;;;;22.92;19.02;;;20.30;99.90;;;;;;5057847;28;20060;-75
2022/08/16 01:55:09;;;;;;;22.33;18.77;;;20.30;99.90;;;;;;5041456;28;20139;-75
2022/08/16 01:57:35;;;;;;;22.90;18.35;;;20.30;99.90;;;;;;5075341;28;20040;-75
2022/08/16 02:00:03;;;;;;;23.88;19.98;;;20.30;99.90;;;;;;5056709;28;20119;-75
2022/08/16 02:02:29;;;;;;;26.38;20.80;;;20.30;99.90;;;;;;5076066;28;20369;-75
2022/08/16 02:04:56;;;;;;;25.05;19.10;;;20.30;99.90;;;;;;5074149;28;20049;-75
2022/08/16 02:07:22;;;;;;;21.83;19.48;;;20.30;99.90;;;;;;5073639;28;20132;-75
2022/08/16 02:09:48;;;;;;;22.40;20.00;;;20.30;99.90;;;;;;5074174;28;20072;-75
2022/08/16 02:12:15;;;;;;;25.10;20.20;;;20.30;99.90;;;;;;5073952;28;20044;-75
2022/08/16 02:14:41;;;;;;;25.38;20.70;;;20.20;99.90;;;;;;5075456;28;20087;-76
2022/08/16 02:17:09;;;;;;;25.70;19.98;;;20.20;99.90;;;;;;5073985;28;20045;-75
2022/08/16 02:19:39;;;;;;;25.08;21.70;;;20.30;99.90;;;;;;5074929;28;20070;-75
2022/08/16 02:22:08;;;;;;;23.88;20.38;;;20.20;99.90;;;;;;5073896;28;20040;-75
2022/08/16 02:24:34;;;;;;;24.40;21.58;;;19.90;99.90;;;;;;5057432;28;20052;-75
2022/08/16 02:27:00;;;;;;;26.63;20.50;;;20.20;99.90;;;;;;5075191;28;20055;-75
2022/08/16 02:29:26;;;;;;;25.30;21.88;;;20.20;99.90;;;;;;5057058;28;20143;-75
2022/08/16 02:31:52;;;;;;;25.92;20.58;;;20.20;99.90;;;;;;5056996;28;20048;-76
2022/08/16 02:34:19;;;;;;;25.55;21.75;;;20.10;99.90;;;;;;5073402;28;20043;-76
2022/08/16 02:36:45;;;;;;;27.05;21.80;;;20.10;99.90;;;;;;5057145;28;20400;-75
2022/08/16 02:39:13;;;;;;;28.67;21.88;;;20.10;99.90;;;;;;5074451;28;20048;-75
2022/08/16 02:41:41;;;;;;;27.80;21.80;;;20.10;99.90;;;;;;5073506;28;20060;-76
2022/08/16 02:44:10;;;;;;;27.10;22.25;;;20.10;99.90;;;;;;5074533;28;20059;-75
2022/08/16 02:46:36;;;;;;;27.67;22.65;;;20.10;99.90;;;;;;5073187;28;20056;-75
2022/08/16 02:49:02;;;;;;;28.85;23.25;;;20.10;99.90;;;;;;5074362;28;20102;-75
2022/08/16 02:51:28;;;;;;;30.23;23.15;;;20.10;99.90;;;;;;5074220;28;20048;-76
2022/08/16 02:53:54;;;;;;;30.00;24.33;;;20.00;99.90;;;;;;5073285;28;20041;-76
2022/08/16 02:56:20;;;;;;;25.50;22.40;;;20.00;99.90;;;;;;5074002;28;20481;-76
2022/08/16 02:58:48;;;;;;;31.20;24.58;;;20.00;99.90;;;;;;5074102;28;20056;-76
2022/08/16 03:01:31;;;;;;;28.27;24.33;;;20.10;99.90;;;;;;5056397;28;20113;-75
2022/08/16 03:04:00;;;;;;;32.35;24.17;;;20.00;99.90;;;;;;5072627;28;20060;-75
2022/08/16 03:06:27;;;;;;;31.48;24.20;;;20.00;99.90;;;;;;5073194;28;20056;-76
2022/08/16 03:08:52;;;;;;;31.67;24.25;;;20.00;99.90;;;;;;5056625;28;20052;-76
2022/08/16 03:11:18;;;;;;;28.60;23.80;;;20.00;99.90;;;;;;5073754;28;20044;-76
2022/08/16 03:13:46;;;;;;;29.00;24.05;;;20.00;99.90;;;;;;5073256;28;20051;-76
2022/08/16 03:16:12;;;;;;;29.38;24.13;;;20.00;99.90;;;;;;5056158;28;20048;-76
2022/08/16 03:18:39;;;;;;;35.20;27.48;;;20.00;99.90;;;;;;5072571;28;20045;-75
2022/08/16 03:21:06;;;;;;;31.73;26.45;;;20.00;99.90;;;;;;5073612;28;20373;-76
2022/08/16 03:23:32;;;;;;;29.75;24.58;;;20.00;99.90;;;;;;5072738;28;20040;-75
2022/08/16 03:25:58;;;;;;;31.52;25.27;;;20.00;99.90;;;;;;5056659;28;20052;-76
2022/08/16 03:28:23;;;;;;;32.47;24.90;;;20.00;99.90;;;;;;5072560;28;20048;-75
2022/08/16 03:30:49;;;;;;;29.77;24.73;;;20.00;99.90;;;;;;5056276;28;20083;-76
2022/08/16 03:33:15;;;;;;;30.15;24.27;;;20.00;99.90;;;;;;5040167;28;20048;-76
2022/08/16 03:35:41;;;;;;;29.27;24.65;;;20.00;99.90;;;;;;5072433;28;20119;-76
2022/08/16 03:38:10;;;;;;;30.05;25.30;;;20.00;99.90;;;;;;5072583;28;20037;-76
2022/08/16 03:40:37;;;;;;;29.00;24.05;;;20.10;99.90;;;;;;5072599;28;20091;-76
2022/08/16 03:43:06;;;;;;;31.60;24.85;;;20.00;99.90;;;;;;5072325;28;20098;-76
2022/08/16 03:45:33;;;;;;;31.10;24.83;;;20.00;99.90;;;;;;5072318;28;20051;-76
2022/08/16 03:48:01;;;;;;;29.17;23.70;;;20.00;99.90;;;;;;5072242;28;20044;-76
2022/08/16 03:50:27;;;;;;;29.05;23.50;;;20.00;99.90;;;;;;5072524;28;20504;-77
2022/08/16 03:52:53;;;;;;;30.85;24.63;;;19.90;99.90;;;;;;5039308;28;20388;-76
2022/08/16 03:55:19;;;;;;;32.88;26.13;;;19.90;99.90;;;;;;5072482;28;20040;-76
2022/08/16 03:57:44;;;;;;;30.88;24.13;;;19.90;99.90;;;;;;5055817;28;20388;-76
2022/08/16 04:00:19;;;;;;;33.75;24.45;;;19.90;99.90;;;;;;5072151;28;20473;-76
2022/08/16 04:02:45;;;;;;;30.65;24.52;;;19.90;99.90;;;;;;5072676;28;20041;-76
2022/08/16 04:05:13;;;;;;;31.60;25.23;;;19.80;99.90;;;;;;5071947;28;20059;-76
2022/08/16 04:07:39;;;;;;;31.35;25.58;;;19.80;99.90;;;;;;5072043;28;20052;-76
2022/08/16 04:10:07;;;;;;;32.63;25.00;;;19.80;99.90;;;;;;5072220;28;20040;-76
2022/08/16 04:12:34;;;;;;;34.17;26.40;;;19.80;99.90;;;;;;5055577;28;20114;-76
2022/08/16 04:15:01;;;;;;;33.80;26.55;;;19.80;99.90;;;;;;5072186;28;20047;-77
2022/08/16 04:17:27;;;;;;;29.13;24.55;;;19.80;99.90;;;;;;5055574;28;20053;-76
2022/08/16 04:19:52;;;;;;;30.65;25.75;;;19.70;99.90;;;;;;5073198;28;20059;-76
2022/08/16 04:22:18;;;;;;;29.27;24.98;;;19.80;99.90;;;;;;5072084;28;20049;-76
2022/08/16 04:24:44;;;;;;;29.00;24.95;;;19.70;99.90;;;;;;5075785;28;20374;-76
2022/08/16 04:27:10;;;;;;;30.65;25.75;;;19.70;99.90;;;;;;5059521;28;20107;-77
2022/08/16 04:29:36;;;;;;;32.65;27.70;;;19.70;99.90;;;;;;5075787;28;20060;-76
2022/08/16 04:32:02;;;;;;;36.20;27.90;;;19.70;99.90;;;;;;5076959;28;20075;-77
2022/08/16 04:34:31;;;;;;;31.27;25.75;;;19.70;99.90;;;;;;5075944;28;20041;-76
2022/08/16 04:36:58;;;;;;;30.45;25.00;;;19.70;99.90;;;;;;5059104;28;20056;-76
2022/08/16 04:39:25;;;;;;;30.85;26.15;;;19.70;99.90;;;;;;5076769;28;20088;-76
2022/08/16 04:41:51;;;;;;;30.83;25.52;;;19.60;99.90;;;;;;5059097;28;20458;-76
2022/08/16 04:44:17;;;;;;;32.30;26.00;;;19.60;99.90;;;;;;5077482;28;20132;-76
2022/08/16 04:46:43;;;;;;;33.60;26.02;;;19.60;99.90;;;;;;5058732;28;20127;-76
2022/08/16 04:49:10;;;;;;;32.20;25.30;;;19.60;99.90;;;;;;5076609;28;20373;-76
2022/08/16 04:51:38;;;;;;;35.40;27.20;;;19.60;99.90;;;;;;5075417;28;20056;-76
2022/08/16 04:54:03;;;;;;;33.50;26.92;;;19.60;99.90;;;;;;5076513;28;20113;-76
2022/08/16 04:56:29;;;;;;;32.25;26.70;;;19.60;99.90;;;;;;5077576;28;20044;-76
2022/08/16 04:58:55;;;;;;;29.48;25.45;;;19.60;99.90;;;;;;5076437;28;20392;-76
2022/08/16 05:01:21;;;;;;;31.83;25.17;;;19.60;99.90;;;;;;5075222;28;20047;-77
2022/08/16 05:03:47;;;;;;;30.88;26.50;;;19.50;99.90;;;;;;5076168;28;20178;-75
2022/08/16 05:06:13;;;;;;;31.90;25.23;;;19.50;99.90;;;;;;5077083;28;20145;-77
2022/08/16 05:08:38;;;;;;;31.98;26.52;;;19.60;99.90;;;;;;5075552;28;20041;-76
2022/08/16 05:11:07;;;;;;;32.33;26.85;;;19.60;99.90;;;;;;5076728;28;20053;-77
2022/08/16 05:13:35;;;;;;;32.75;25.90;;;19.60;99.90;;;;;;5075203;28;20059;-77
2022/08/16 05:16:01;;;;;;;33.08;26.23;;;19.60;99.90;;;;;;5074880;28;20049;-76
2022/08/16 05:18:27;;;;;;;32.58;27.13;;;19.60;99.90;;;;;;5075093;28;20155;-77
2022/08/16 05:20:52;;;;;;;30.85;26.42;;;19.60;99.90;;;;;;5075068;28;20052;-76
2022/08/16 05:23:18;;;;;;;29.33;24.75;;;19.60;99.90;;;;;;5075080;28;20040;-76
2022/08/16 05:25:44;;;;;;;33.70;26.05;;;19.60;99.90;;;;;;5075240;28;20553;-76
2022/08/16 05:28:10;;;;;;;28.05;24.15;;;19.60;99.90;;;;;;5075167;28;20131;-77
2022/08/16 05:30:37;;;;;;;31.85;26.00;;;19.60;99.90;;;;;;5074663;28;20094;-77
2022/08/16 05:33:04;;;;;;;31.35;26.15;;;19.60;99.90;;;;;;5074886;28;20038;-77
2022/08/16 05:35:30;;;;;;;34.88;25.20;;;19.60;99.90;;;;;;5075735;28;20046;-77
2022/08/16 05:37:56;;;;;;;33.72;27.33;;;19.60;99.90;;;;;;5076002;28;20127;-77
2022/08/16 05:40:21;;;;;;;31.10;24.92;;;19.60;99.90;;;;;;5075702;28;20473;-77
2022/08/16 05:42:47;;;;;;;33.22;26.50;;;19.60;99.90;;;;;;5075673;28;20051;-77
2022/08/16 05:45:14;;;;;;;32.08;26.42;;;19.60;99.90;;;;;;5075511;28;20044;-77
2022/08/16 05:47:39;;;;;;;37.17;27.08;;;19.60;99.90;;;;;;5075105;28;20049;-77
2022/08/16 05:50:06;;;;;;;31.42;26.60;;;19.60;99.90;;;;;;5057920;28;20059;-78
2022/08/16 05:52:33;;;;;;;33.25;26.58;;;19.60;99.90;;;;;;5074146;28;20131;-76
2022/08/16 05:54:58;;;;;;;32.17;27.27;;;19.70;99.90;;;;;;5075392;28;20063;-76
2022/08/16 05:57:24;;;;;;;34.22;27.17;;;19.70;99.90;;;;;;5040907;28;20499;-76
2022/08/16 05:59:50;;;;;;;33.45;27.48;;;19.70;99.90;;;;;;5074581;28;20132;-75
2022/08/16 06:02:17;;;;;;;32.85;25.83;;;19.70;99.90;;;;;;5075816;28;20385;-76
2022/08/16 06:04:43;;;;;;;33.63;26.17;;;19.80;99.90;;;;;;5073740;28;20415;-76
2022/08/16 06:07:09;;;;;;;34.00;26.33;;;19.80;99.90;;;;;;5073980;28;20048;-76
2022/08/16 06:09:35;;;;;;;32.97;26.58;;;19.80;99.90;;;;;;5074119;28;20048;-75
2022/08/16 06:12:01;;;;;;;30.83;26.17;;;19.90;99.90;;;;;;5073916;28;20091;-76
2022/08/16 06:14:28;;;;;;;33.88;25.38;;;19.90;99.90;;;;;;5075070;28;20117;-76
2022/08/16 06:17:00;;;;;;;30.17;24.67;;;20.00;99.90;;;;;;5074938;28;20131;-76
2022/08/16 06:19:26;;;;;;;32.50;26.30;;;20.00;99.90;;;;;;5074045;28;20047;-76
2022/08/16 06:21:52;;;;;;;31.83;26.40;;;20.00;99.90;;;;;;5073654;28;20041;-76
2022/08/16 06:24:17;;;;;;;32.35;26.67;;;20.00;99.90;;;;;;5041113;28;20114;-75
2022/08/16 06:26:43;;;;;;;28.85;24.40;;;20.10;99.90;;;;;;5056897;28;20037;-76
2022/08/16 06:29:09;;;;;;;29.90;24.83;;;20.10;99.90;;;;;;5056878;28;20040;-75
2022/08/16 06:31:34;;;;;;;27.92;23.77;;;20.10;99.90;;;;;;5073681;28;20082;-75
2022/08/16 06:34:00;;;;;;;27.13;24.02;;;20.10;99.90;;;;;;5057034;28;20465;-75
2022/08/16 06:36:26;;;;;;;27.10;23.13;;;20.10;99.90;;;;;;5040300;28;20052;-76
2022/08/16 06:38:51;;;;;;;27.98;22.70;;;20.20;99.90;;;;;;5074482;28;20044;-76
2022/08/16 06:41:17;;;;;;;27.30;22.85;;;20.20;99.90;;;;;;5074542;28;20052;-76
2022/08/16 06:43:43;;;;;;;29.08;23.52;;;20.20;99.90;;;;;;5073458;28;20045;-76
2022/08/16 06:46:25;;;;;;;27.52;24.52;;;20.20;99.90;;;;;;5073986;28;20047;-75
2022/08/16 06:48:51;;;;;;;27.25;21.85;;;20.20;99.90;;;;;;5073463;28;20045;-75
2022/08/16 06:51:17;;;;;;;28.85;24.13;;;20.30;99.90;;;;;;5075293;28;20360;-75
2022/08/16 06:53:43;;;;;;;27.88;21.77;;;20.30;99.90;;;;;;5074311;28;20036;-75
2022/08/16 06:56:09;;;;;;;27.67;23.08;;;20.30;99.90;;;;;;5073741;28;20047;-75
2022/08/16 06:58:35;;;;;;;27.38;23.80;;;20.30;99.90;;;;;;5074337;28;20044;-76
2022/08/16 07:01:01;;;;;;;27.80;22.80;;;20.40;99.90;;;;;;5073110;28;20052;-77
2022/08/16 07:03:30;;;;;;;25.92;22.40;;;20.50;99.90;;;;;;5073374;28;20083;-76
2022/08/16 07:05:57;;;;;;;27.45;22.67;;;20.50;99.90;;;;;;5056115;28;20052;-76
2022/08/16 07:08:26;;;;;;;25.38;22.30;;;20.50;99.90;;;;;;5056627;28;20090;-77
2022/08/16 07:10:52;;;;;;;28.77;22.58;;;20.50;99.90;;;;;;5056539;28;20051;-76
2022/08/16 07:13:19;;;;;;;25.67;20.98;;;20.60;99.90;;;;;;5055507;28;20084;-76
2022/08/16 07:15:45;;;;;;;25.25;21.08;;;20.70;99.90;;;;;;5073039;28;20052;-76
2022/08/16 07:18:10;;;;;;;22.58;20.13;;;20.70;99.90;;;;;;5073087;28;20044;-77
2022/08/16 07:20:37;;;;;;;22.77;19.73;;;20.80;99.90;;;;;;5039839;28;20423;-75
2022/08/16 07:23:05;;;;;;;23.17;19.92;;;20.80;99.90;;;;;;5073353;28;20051;-76
2022/08/16 07:25:32;;;;;;;23.25;20.10;;;20.80;99.90;;;;;;5072970;28;20465;-79
2022/08/16 07:27:58;;;;;;;22.77;19.10;;;20.90;99.90;;;;;;5055916;28;20043;-83
2022/08/16 07:30:25;;;;;;;23.02;19.30;;;20.90;99.90;;;;;;5056122;28;20127;-80
2022/08/16 07:32:51;;;;;;;22.40;19.25;;;21.00;99.90;;;;;;5073909;28;20375;-81
2022/08/16 07:35:18;;;;;;;23.35;18.70;;;21.00;99.90;;;;;;5073457;28;20468;-81
2022/08/16 07:37:44;;;;;;;21.23;18.92;;;21.10;99.90;;;;;;5056335;28;20286;-81
2022/08/16 07:40:11;;;;;;;21.25;18.90;;;21.20;99.90;;;;;;5072829;28;20075;-81
2022/08/16 07:42:37;;;;;;;20.75;18.33;;;21.20;99.90;;;;;;5072768;28;20462;-82
2022/08/16 07:45:06;;;;;;;21.98;17.95;;;21.30;99.90;;;;;;5039298;28;20052;-79
2022/08/16 07:47:32;;;;;;;21.92;18.58;;;21.30;99.90;;;;;;5072506;28;20075;-79
2022/08/16 07:50:00;;;;;;;23.17;18.70;;;21.40;99.90;;;;;;5072543;28;20075;-80
2022/08/16 07:52:26;;;;;;;23.45;18.65;;;21.40;99.90;;;;;;5055629;28;20052;-80
2022/08/16 07:54:52;;;;;;;23.08;19.00;;;21.50;99.90;;;;;;5073708;28;20052;-79
2022/08/16 07:57:18;;;;;;;21.05;17.80;;;21.60;99.90;;;;;;5072576;28;20032;-78
2022/08/16 07:59:44;;;;;;;19.92;16.85;;;21.60;99.90;;;;;;5059977;28;20087;-81
2022/08/16 08:02:13;;;;;;;21.63;16.50;;;21.70;99.90;;;;;;5076786;28;20062;-78
2022/08/16 08:04:40;;;;;;;18.70;16.65;;;21.70;99.90;;;;;;5076661;28;20048;-80
2022/08/16 08:07:06;;;;;;;18.67;16.75;;;21.80;99.90;;;;;;5026581;28;20127;-79
2022/08/16 08:09:31;;;;;;;18.92;14.60;;;21.90;99.90;;;;;;5077914;28;20040;-78
2022/08/16 08:11:57;;;;;;;15.60;13.73;;;21.90;99.90;;;;;;5043416;28;20051;-78
2022/08/16 08:14:23;;;;;;;15.00;13.57;;;22.00;99.90;;;;;;5076254;28;20040;-77
2022/08/16 08:16:49;;;;;;;14.23;12.55;;;22.00;99.90;;;;;;5059801;28;20051;-77
2022/08/16 08:19:16;;;;;;;14.02;12.55;;;22.10;99.90;;;;;;5043502;28;20055;-76
2022/08/16 08:21:42;;;;;;;13.90;12.20;;;22.20;99.90;;;;;;5059270;28;20055;-74
2022/08/16 08:24:10;;;;;;;13.57;12.13;;;22.20;99.90;;;;;;5058908;28;20128;-74
2022/08/16 08:26:36;;;;;;;15.77;13.25;;;22.20;99.90;;;;;;5075388;28;20048;-74
2022/08/16 08:29:03;;;;;;;15.50;12.35;;;22.30;99.90;;;;;;5059683;28;20040;-72
2022/08/16 08:31:29;;;;;;;13.80;12.35;;;22.30;99.90;;;;;;5076758;28;20543;-73
2022/08/16 08:33:57;;;;;;;14.48;12.38;;;22.40;99.90;;;;;;5076513;28;20487;-73
2022/08/16 08:36:29;;;;;;;14.43;11.60;;;22.40;99.90;;;;;;5074905;28;20059;-72
2022/08/16 08:38:55;;;;;;;14.27;12.38;;;22.50;99.90;;;;;;5074870;28;20132;-73
2022/08/16 08:41:22;;;;;;;12.60;11.25;;;22.60;99.90;;;;;;5058620;28;20051;-73
2022/08/16 08:43:48;;;;;;;12.80;11.48;;;22.60;99.90;;;;;;5076188;28;20041;-74
2022/08/16 08:46:14;;;;;;;12.93;11.27;;;22.70;99.90;;;;;;5075072;28;20051;-74
2022/08/16 08:48:40;;;;;;;12.55;11.18;;;22.70;99.90;;;;;;5074896;28;20044;-78
2022/08/16 08:51:07;;;;;;;12.40;11.20;;;22.80;99.90;;;;;;5075184;28;20059;-76
2022/08/16 08:53:34;;;;;;;12.13;9.45;;;22.80;99.90;;;;;;5058374;28;20044;-78
2022/08/16 08:56:02;;;;;;;9.98;8.98;;;22.90;99.90;;;;;;5058010;28;20123;-77
2022/08/16 08:58:28;;;;;;;10.15;9.10;;;22.90;99.90;;;;;;5075178;28;20040;-75
2022/08/16 09:00:55;;;;;;;9.23;8.25;;;23.00;99.90;;;;;;5058816;28;20044;-76
2022/08/16 09:03:21;;;;;;;10.60;8.90;;;23.00;99.90;;;;;;5041825;28;20460;-76
2022/08/16 09:05:51;;;;;;;9.95;8.23;;;23.10;99.90;;;;;;5073813;28;20073;-77
2022/08/16 09:08:18;;;;;;;9.57;7.72;;;23.20;99.90;;;;;;5057246;28;20079;-81
2022/08/16 09:10:44;;;;;;;11.75;8.30;;;23.20;99.90;;;;;;5041008;28;20044;-75
2022/08/16 09:13:10;;;;;;;8.43;7.63;;;23.30;99.90;;;;;;5042257;28;20045;-77
2022/08/16 09:15:38;;;;;;;9.18;8.25;;;23.30;99.90;;;;;;5023665;28;20046;-76
2022/08/16 09:18:04;;;;;;;10.15;7.47;;;23.40;99.90;;;;;;5057880;28;20434;-75
2022/08/16 09:20:51;;;;;;;9.32;8.43;;;23.50;99.90;;;;;;5057397;28;20040;-78
2022/08/16 09:23:24;;;;;;;10.15;8.48;;;23.50;99.90;;;;;;5074713;28;20044;-77
2022/08/16 09:25:52;;;;;;;9.43;8.15;;;23.60;99.90;;;;;;5041180;28;20040;-77
2022/08/16 09:28:18;;;;;;;9.07;7.75;;;23.70;99.90;;;;;;5057036;28;20052;-75
2022/08/16 09:30:44;;;;;;;10.00;7.50;;;23.70;99.90;;;;;;5041213;28;20498;-76
2022/08/16 09:33:10;;;;;;;9.57;7.60;;;23.70;99.90;;;;;;5056913;28;20519;-77
2022/08/16 09:35:37;;;;;;;8.85;7.50;;;23.80;99.90;;;;;;5074793;28;20156;-77
2022/08/16 09:38:03;;;;;;;9.63;7.38;;;23.80;99.90;;;;;;5040345;28;20048;-76
2022/08/16 09:40:29;;;;;;;7.90;6.95;;;23.90;99.90;;;;;;5056973;28;20049;-76
2022/08/16 09:42:57;;;;;;;8.77;7.00;;;23.90;99.90;;;;;;5074119;28;20180;-78
2022/08/16 09:45:24;;;;;;;7.63;6.70;;;24.00;99.90;;;;;;5040052;28;20056;-77
2022/08/16 09:47:53;;;;;;;7.30;6.25;;;24.10;99.90;;;;;;5057192;28;20261;-77
2022/08/16 09:50:20;;;;;;;8.05;6.28;;;24.10;99.90;;;;;;5074045;28;20484;-77
2022/08/16 09:52:46;;;;;;;6.53;5.82;;;24.20;99.90;;;;;;5056962;28;20096;-78
2022/08/16 09:55:12;;;;;;;8.68;6.65;;;24.20;99.90;;;;;;5073303;28;20075;-79
2022/08/16 09:57:40;;;;;;;7.13;6.13;;;24.30;99.90;;;;;;5057114;28;20123;-78
2022/08/16 10:00:09;;;;;;;7.40;6.47;;;24.40;99.90;;;;;;5056733;28;20506;-74
2022/08/16 10:02:36;;;;;;;8.70;5.88;;;24.40;99.90;;;;;;5073089;28;20041;-76
2022/08/16 10:05:03;;;;;;;6.35;5.55;;;24.50;99.90;;;;;;5056487;28;20144;-76
2022/08/16 10:07:30;;;;;;;7.32;6.22;;;24.60;99.90;;;;;;5074031;28;20067;-78
2022/08/16 10:09:56;;;;;;;7.82;5.65;;;24.60;99.90;;;;;;5072852;28;20539;-82
2022/08/16 10:15:17;;;;;;;7.03;5.68;;;24.70;99.90;;;;;;5073096;28;20511;-77
2022/08/16 10:17:51;;;;;;;7.45;5.35;;;24.80;99.90;;;;;;5057260;28;20132;-76
2022/08/16 10:20:16;;;;;;;6.25;5.70;;;24.80;99.90;;;;;;5072038;28;20051;-77
2022/08/16 10:22:42;;;;;;;7.38;5.57;;;24.90;99.90;;;;;;5072659;28;20127;-77
2022/08/16 10:25:08;;;;;;;7.53;5.50;;;24.90;99.90;;;;;;5056534;28;20533;-79
2022/08/16 10:27:35;;;;;;;6.50;5.28;;;24.90;99.90;;;;;;5072715;28;20131;-77
2022/08/16 10:30:03;;;;;;;5.47;5.07;;;25.00;99.90;;;;;;5074132;28;20044;-78
2022/08/16 10:32:29;;;;;;;6.43;4.78;;;25.00;99.90;;;;;;5072783;28;20048;-79
2022/08/16 10:34:55;;;;;;;6.18;4.65;;;25.00;99.90;;;;;;5056378;28;20148;-76
2022/08/16 10:37:20;;;;;;;6.75;4.70;;;25.10;99.90;;;;;;5072535;28;20040;-76
2022/08/16 10:39:46;;;;;;;6.90;5.10;;;25.10;99.90;;;;;;5056675;28;20044;-76
2022/08/16 10:42:12;;;;;;;7.72;4.68;;;25.20;99.90;;;;;;5056262;28;20468;-76
2022/08/16 10:44:37;;;;;;;5.03;4.30;;;25.20;99.90;;;;;;5073765;28;20044;-74
2022/08/16 10:47:04;;;;;;;4.45;4.05;;;25.20;99.90;;;;;;5073850;28;20040;-76
2022/08/16 10:49:31;;;;;;;5.22;4.20;;;25.30;99.90;;;;;;5056368;28;20054;-75
2022/08/16 10:51:56;;;;;;;4.80;4.40;;;25.30;99.90;;;;;;5074199;28;20059;-78
2022/08/16 10:54:22;;;;;;;4.90;4.60;;;25.40;99.90;;;;;;5072094;28;20045;-75
2022/08/16 10:56:48;;;;;;;5.35;4.15;;;25.40;99.90;;;;;;5072415;28;20132;-77
2022/08/16 10:59:14;;;;;;;7.15;4.90;;;25.40;99.90;;;;;;5072945;28;20052;-74
2022/08/16 11:01:40;;;;;;;5.15;4.18;;;25.40;99.90;;;;;;5072710;28;20372;-75
2022/08/16 11:04:06;;;;;;;6.10;4.50;;;25.50;99.90;;;;;;5072932;28;20064;-75
2022/08/16 11:06:33;;;;;;;4.57;3.95;;;25.50;99.90;;;;;;5039907;28;20040;-74
2022/08/16 11:08:59;;;;;;;6.03;4.25;;;25.50;99.90;;;;;;5072161;28;20053;-71
2022/08/16 11:11:25;;;;;;;4.32;3.72;;;25.60;99.90;;;;;;5072177;28;20047;-74
2022/08/16 11:13:51;;;;;;;5.05;4.47;;;25.70;99.90;;;;;;5055474;28;20055;-77
2022/08/16 11:16:18;;;;;;;4.88;4.40;;;25.70;99.90;;;;;;5073087;28;20044;-75
2022/08/16 11:18:44;;;;;;;4.60;4.20;;;25.80;99.90;;;;;;5073872;28;20049;-75
2022/08/16 11:21:11;;;;;;;3.95;3.50;;;25.80;99.90;;;;;;5072897;28;20056;-74
2022/08/16 11:23:37;;;;;;;4.65;3.83;;;25.90;99.90;;;;;;5056554;28;20125;-75
2022/08/16 11:26:03;;;;;;;4.88;4.05;;;25.90;99.90;;;;;;5072352;28;20050;-79
2022/08/16 11:28:30;;;;;;;4.15;3.75;;;26.00;99.90;;;;;;5055098;28;20044;-77
2022/08/16 11:30:56;;;;;;;5.75;3.95;;;26.10;99.90;;;;;;5039623;28;20048;-77
2022/08/16 11:33:23;;;;;;;6.65;3.88;;;26.20;99.90;;;;;;5055452;28;20055;-77
2022/08/16 11:35:48;;;;;;;5.00;3.80;;;26.20;99.90;;;;;;5072965;28;20048;-78
2022/08/16 11:38:17;;;;;;;4.38;3.78;;;26.30;99.90;;;;;;5072300;28;20450;-77
2022/08/16 11:40:50;;;;;;;4.25;2.97;;;26.30;99.90;;;;;;5055249;28;20048;-75
2022/08/16 11:43:22;;;;;;;3.50;3.20;;;26.40;99.90;;;;;;5072095;28;20041;-74
2022/08/16 11:45:49;;;;;;;4.25;3.45;;;26.40;99.90;;;;;;5071950;28;20087;-77
2022/08/16 11:48:15;;;;;;;4.10;3.15;;;26.50;99.90;;;;;;5072685;28;20092;-76
2022/08/16 11:50:43;;;;;;;3.63;3.08;;;26.50;99.90;;;;;;5071460;28;20037;-79
2022/08/16 11:53:09;;;;;;;7.05;3.30;;;26.60;99.90;;;;;;5055738;28;20102;-77
2022/08/16 11:55:36;;;;;;;4.32;3.95;;;26.60;99.90;;;;;;5072469;28;20106;-76
2022/08/16 11:58:03;;;;;;;4.88;3.70;;;26.60;99.90;;;;;;5039054;28;20040;-76
2022/08/16 12:00:31;;;;;;;4.93;4.28;;;26.70;99.90;;;;;;5039078;28;20045;-75
2022/08/16 12:02:57;;;;;;;5.15;4.30;;;26.80;99.90;;;;;;5071227;28;20476;-74
2022/08/16 12:05:26;;;;;;;6.00;4.72;;;26.90;98.90;;;;;;5072009;28;20063;-75
2022/08/16 12:07:54;;;;;;;5.40;4.82;;;26.90;98.30;;;;;;5072085;28;20071;-76
2022/08/16 12:10:21;;;;;;;5.15;4.65;;;27.00;97.80;;;;;;5022937;28;20143;-77
2022/08/16 12:12:47;;;;;;;5.43;4.90;;;27.00;97.00;;;;;;5056168;28;20127;-76
2022/08/16 12:15:14;;;;;;;6.05;4.82;;;27.10;96.90;;;;;;5055467;28;20602;-75
2022/08/16 12:17:41;;;;;;;6.35;4.32;;;27.10;96.50;;;;;;5073925;28;20064;-77
2022/08/16 12:20:16;;;;;;;4.78;4.32;;;27.20;96.90;;;;;;5073163;28;20048;-80
2022/08/16 12:22:42;;;;;;;5.13;4.53;;;27.30;96.10;;;;;;5055369;28;20082;-80
2022/08/16 12:25:14;;;;;;;6.10;5.55;;;27.30;95.10;;;;;;5039067;28;20086;-77
2022/08/16 12:27:41;;;;;;;5.90;5.40;;;27.40;94.80;;;;;;5072795;28;20452;-78
2022/08/16 12:30:09;;;;;;;5.20;4.70;;;27.40;94.90;;;;;;5071815;28;20480;-76
2022/08/16 12:32:35;;;;;;;5.18;4.78;;;27.30;94.60;;;;;;5072064;28;20397;-73
2022/08/16 12:35:01;;;;;;;5.10;4.60;;;27.30;94.00;;;;;;5038874;28;20053;-77